sensor_id;sensor_type;location;lat;lon;timestamp;pressure;altitude;pressure_sealevel;temperature;humidity
82033;BME280;71595;52.180;4.512;2023-12-04T00:00:35;101256.31;;;1.27;85.77
82033;BME280;71595;52.180;4.512;2023-12-04T00:03:01;101243.25;;;1.34;85.54
82033;BME280;71595;52.180;4.512;2023-12-04T00:05:26;101244.91;;;1.35;85.27
82033;BME280;71595;52.180;4.512;2023-12-04T00:07:51;101238.38;;;1.36;85.49
82033;BME280;71595;52.180;4.512;2023-12-04T00:10:17;101247.63;;;1.40;85.00
82033;BME280;71595;52.180;4.512;2023-12-04T00:12:42;101240.00;;;1.32;85.27
82033;BME280;71595;52.180;4.512;2023-12-04T00:15:08;101243.78;;;1.25;85.94
82033;BME280;71595;52.180;4.512;2023-12-04T00:17:33;101235.88;;;1.29;85.37
82033;BME280;71595;52.180;4.512;2023-12-04T00:19:59;101237.81;;;1.29;85.79
82033;BME280;71595;52.180;4.512;2023-12-04T00:22:25;101229.09;;;1.27;86.01
82033;BME280;71595;52.180;4.512;2023-12-04T00:24:50;101225.84;;;1.30;86.53
82033;BME280;71595;52.180;4.512;2023-12-04T00:27:15;101225.31;;;1.33;85.86
82033;BME280;71595;52.180;4.512;2023-12-04T00:29:41;101219.28;;;1.25;86.12
82033;BME280;71595;52.180;4.512;2023-12-04T00:32:06;101221.97;;;1.10;86.73
82033;BME280;71595;52.180;4.512;2023-12-04T00:34:31;101217.63;;;1.19;85.81
82033;BME280;71595;52.180;4.512;2023-12-04T00:36:57;101217.94;;;1.28;85.49
82033;BME280;71595;52.180;4.512;2023-12-04T00:39:22;101216.84;;;1.29;86.09
82033;BME280;71595;52.180;4.512;2023-12-04T00:41:47;101212.25;;;1.30;85.16
82033;BME280;71595;52.180;4.512;2023-12-04T00:44:13;101216.56;;;1.25;85.86
82033;BME280;71595;52.180;4.512;2023-12-04T00:46:38;101208.97;;;1.33;86.15
82033;BME280;71595;52.180;4.512;2023-12-04T00:49:03;101207.59;;;1.35;85.75
82033;BME280;71595;52.180;4.512;2023-12-04T00:51:29;101198.63;;;1.30;86.06
82033;BME280;71595;52.180;4.512;2023-12-04T00:53:54;101207.88;;;1.34;85.07
82033;BME280;71595;52.180;4.512;2023-12-04T00:56:19;101204.03;;;1.19;86.51
82033;BME280;71595;52.180;4.512;2023-12-04T00:58:46;101196.41;;;1.21;86.48
82033;BME280;71595;52.180;4.512;2023-12-04T01:01:11;101201.59;;;1.23;85.34
82033;BME280;71595;52.180;4.512;2023-12-04T01:03:37;101185.53;;;1.21;85.82
82033;BME280;71595;52.180;4.512;2023-12-04T01:06:03;101180.66;;;1.29;84.97
82033;BME280;71595;52.180;4.512;2023-12-04T01:08:28;101177.34;;;1.16;85.97
82033;BME280;71595;52.180;4.512;2023-12-04T01:10:54;101175.97;;;1.03;86.46
82033;BME280;71595;52.180;4.512;2023-12-04T01:13:19;101168.66;;;1.14;86.67
82033;BME280;71595;52.180;4.512;2023-12-04T01:15:45;101165.94;;;1.19;85.77
82033;BME280;71595;52.180;4.512;2023-12-04T01:18:11;101171.91;;;1.11;86.22
82033;BME280;71595;52.180;4.512;2023-12-04T01:20:37;101159.97;;;1.22;86.12
82033;BME280;71595;52.180;4.512;2023-12-04T01:23:02;101163.50;;;1.23;85.66
82033;BME280;71595;52.180;4.512;2023-12-04T01:25:27;101157.25;;;1.28;85.07
82033;BME280;71595;52.180;4.512;2023-12-04T01:27:53;101148.28;;;1.37;84.09
82033;BME280;71595;52.180;4.512;2023-12-04T01:30:18;101148.03;;;1.39;83.94
82033;BME280;71595;52.180;4.512;2023-12-04T01:32:44;101147.75;;;1.40;84.08
82033;BME280;71595;52.180;4.512;2023-12-04T01:35:09;101152.91;;;1.27;84.76
82033;BME280;71595;52.180;4.512;2023-12-04T01:37:34;101150.19;;;1.27;85.03
82033;BME280;71595;52.180;4.512;2023-12-04T01:40:00;101148.53;;;1.20;85.26
82033;BME280;71595;52.180;4.512;2023-12-04T01:42:25;101146.34;;;1.17;85.30
82033;BME280;71595;52.180;4.512;2023-12-04T01:44:50;101144.13;;;1.09;85.83
82033;BME280;71595;52.180;4.512;2023-12-04T01:47:17;101143.63;;;1.17;85.04
82033;BME280;71595;52.180;4.512;2023-12-04T01:49:43;101134.94;;;1.20;84.15
82033;BME280;71595;52.180;4.512;2023-12-04T01:52:08;101137.13;;;1.23;85.23
82033;BME280;71595;52.180;4.512;2023-12-04T01:54:35;101136.28;;;1.18;84.81
82033;BME280;71595;52.180;4.512;2023-12-04T01:57:02;101137.63;;;1.15;84.56
82033;BME280;71595;52.180;4.512;2023-12-04T01:59:28;101124.59;;;1.28;84.60
82033;BME280;71595;52.180;4.512;2023-12-04T02:01:53;101122.44;;;1.30;83.85
82033;BME280;71595;52.180;4.512;2023-12-04T02:04:20;101125.13;;;1.14;84.71
82033;BME280;71595;52.180;4.512;2023-12-04T02:06:46;101115.31;;;1.18;83.99
82033;BME280;71595;52.180;4.512;2023-12-04T02:09:11;101112.88;;;1.12;84.98
82033;BME280;71595;52.180;4.512;2023-12-04T02:11:38;101120.19;;;1.06;85.21
82033;BME280;71595;52.180;4.512;2023-12-04T02:14:05;101109.88;;;1.18;84.88
82033;BME280;71595;52.180;4.512;2023-12-04T02:16:30;101108.00;;;1.24;84.38
82033;BME280;71595;52.180;4.512;2023-12-04T02:18:57;101108.81;;;1.30;83.98
82033;BME280;71595;52.180;4.512;2023-12-04T02:21:22;101102.81;;;1.28;84.76
82033;BME280;71595;52.180;4.512;2023-12-04T02:23:49;101101.75;;;1.23;84.76
82033;BME280;71595;52.180;4.512;2023-12-04T02:26:16;101093.56;;;1.23;84.04
82033;BME280;71595;52.180;4.512;2023-12-04T02:28:46;101090.84;;;1.29;84.39
82033;BME280;71595;52.180;4.512;2023-12-04T02:31:16;101091.41;;;1.20;84.63
82033;BME280;71595;52.180;4.512;2023-12-04T02:33:45;101088.69;;;1.20;84.86
82033;BME280;71595;52.180;4.512;2023-12-04T02:36:12;101085.41;;;1.23;84.72
82033;BME280;71595;52.180;4.512;2023-12-04T02:38:38;101084.88;;;1.27;84.39
82033;BME280;71595;52.180;4.512;2023-12-04T02:41:04;101076.16;;;1.30;83.42
82033;BME280;71595;52.180;4.512;2023-12-04T02:43:30;101065.81;;;1.32;83.62
82033;BME280;71595;52.180;4.512;2023-12-04T02:45:56;101059.56;;;1.31;83.56
82033;BME280;71595;52.180;4.512;2023-12-04T02:48:21;101060.66;;;1.40;83.87
82033;BME280;71595;52.180;4.512;2023-12-04T02:50:46;101060.38;;;1.32;83.88
82033;BME280;71595;52.180;4.512;2023-12-04T02:53:12;101058.19;;;1.29;83.88
82033;BME280;71595;52.180;4.512;2023-12-04T02:55:37;101051.13;;;1.33;83.79
82033;BME280;71595;52.180;4.512;2023-12-04T02:58:02;101047.31;;;1.23;83.27
82033;BME280;71595;52.180;4.512;2023-12-04T03:00:28;101045.13;;;1.15;84.58
82033;BME280;71595;52.180;4.512;2023-12-04T03:02:53;101036.97;;;1.25;83.85
82033;BME280;71595;52.180;4.512;2023-12-04T03:05:19;101032.63;;;1.19;83.69
82033;BME280;71595;52.180;4.512;2023-12-04T03:07:44;101033.16;;;1.21;82.93
82033;BME280;71595;52.180;4.512;2023-12-04T03:10:10;101027.44;;;1.33;83.48
82033;BME280;71595;52.180;4.512;2023-12-04T03:12:36;101022.81;;;1.29;82.77
82033;BME280;71595;52.180;4.512;2023-12-04T03:15:01;101030.44;;;1.37;82.42
82033;BME280;71595;52.180;4.512;2023-12-04T03:17:27;101016.84;;;1.27;82.67
82033;BME280;71595;52.180;4.512;2023-12-04T03:19:52;101005.13;;;1.26;81.95
82033;BME280;71595;52.180;4.512;2023-12-04T03:22:17;101012.47;;;1.25;82.96
82033;BME280;71595;52.180;4.512;2023-12-04T03:24:43;101004.31;;;1.25;82.25
82033;BME280;71595;52.180;4.512;2023-12-04T03:27:08;100999.41;;;1.28;82.43
82033;BME280;71595;52.180;4.512;2023-12-04T03:29:33;100997.78;;;1.32;82.35
82033;BME280;71595;52.180;4.512;2023-12-04T03:31:59;100994.53;;;1.30;82.02
82033;BME280;71595;52.180;4.512;2023-12-04T03:34:24;100985.81;;;1.38;81.56
82033;BME280;71595;52.180;4.512;2023-12-04T03:36:49;100987.16;;;1.40;80.98
82033;BME280;71595;52.180;4.512;2023-12-04T03:39:15;100981.44;;;1.42;81.03
82033;BME280;71595;52.180;4.512;2023-12-04T03:41:40;100973.00;;;1.38;81.22
82033;BME280;71595;52.180;4.512;2023-12-04T03:44:06;100977.09;;;1.31;81.22
82033;BME280;71595;52.180;4.512;2023-12-04T03:46:31;100964.31;;;1.31;81.33
82033;BME280;71595;52.180;4.512;2023-12-04T03:48:56;100961.31;;;1.33;81.56
82033;BME280;71595;52.180;4.512;2023-12-04T03:51:22;100958.88;;;1.26;81.16
82033;BME280;71595;52.180;4.512;2023-12-04T03:53:47;100950.41;;;1.38;80.85
82033;BME280;71595;52.180;4.512;2023-12-04T03:56:12;100949.06;;;1.30;80.74
82033;BME280;71595;52.180;4.512;2023-12-04T03:58:38;100955.31;;;1.41;80.57
82033;BME280;71595;52.180;4.512;2023-12-04T04:01:04;100951.50;;;1.42;80.13
82033;BME280;71595;52.180;4.512;2023-12-04T04:03:29;100950.13;;;1.50;79.77
82033;BME280;71595;52.180;4.512;2023-12-04T04:05:54;100948.78;;;1.37;81.19
82033;BME280;71595;52.180;4.512;2023-12-04T04:08:20;100943.63;;;1.40;80.27
82033;BME280;71595;52.180;4.512;2023-12-04T04:10:45;100936.53;;;1.39;80.34
82033;BME280;71595;52.180;4.512;2023-12-04T04:13:11;100932.75;;;1.30;80.40
82033;BME280;71595;52.180;4.512;2023-12-04T04:15:36;100944.44;;;1.36;80.20
82033;BME280;71595;52.180;4.512;2023-12-04T04:18:01;100936.28;;;1.31;80.84
82033;BME280;71595;52.180;4.512;2023-12-04T04:20:27;100926.22;;;1.26;80.72
82033;BME280;71595;52.180;4.512;2023-12-04T04:22:52;100927.59;;;1.23;81.37
82033;BME280;71595;52.180;4.512;2023-12-04T04:25:18;100927.88;;;1.22;81.17
82033;BME280;71595;52.180;4.512;2023-12-04T04:27:44;100928.94;;;1.31;80.25
82033;BME280;71595;52.180;4.512;2023-12-04T04:30:09;100927.56;;;1.34;80.83
82033;BME280;71595;52.180;4.512;2023-12-04T04:32:36;100924.31;;;1.32;80.62
82033;BME280;71595;52.180;4.512;2023-12-04T04:35:01;100912.88;;;1.24;80.88
82033;BME280;71595;52.180;4.512;2023-12-04T04:37:26;100916.16;;;1.27;79.96
82033;BME280;71595;52.180;4.512;2023-12-04T04:39:52;100912.91;;;1.30;79.71
82033;BME280;71595;52.180;4.512;2023-12-04T04:42:17;100907.72;;;1.28;79.96
82033;BME280;71595;52.180;4.512;2023-12-04T04:44:43;100911.28;;;1.23;80.18
82033;BME280;71595;52.180;4.512;2023-12-04T04:47:08;100915.09;;;1.17;80.67
82033;BME280;71595;52.180;4.512;2023-12-04T04:49:33;100904.19;;;1.22;80.31
82033;BME280;71595;52.180;4.512;2023-12-04T04:51:59;100905.28;;;1.21;80.00
82033;BME280;71595;52.180;4.512;2023-12-04T04:54:24;100902.56;;;1.27;80.42
82033;BME280;71595;52.180;4.512;2023-12-04T04:56:49;100901.19;;;1.34;79.85
82033;BME280;71595;52.180;4.512;2023-12-04T04:59:16;100898.47;;;1.34;79.66
82033;BME280;71595;52.180;4.512;2023-12-04T05:01:41;100887.31;;;1.36;78.75
82033;BME280;71595;52.180;4.512;2023-12-04T05:04:06;100884.31;;;1.37;79.52
82033;BME280;71595;52.180;4.512;2023-12-04T05:06:32;100881.28;;;1.44;78.74
82033;BME280;71595;52.180;4.512;2023-12-04T05:08:57;100873.97;;;1.34;79.71
82033;BME280;71595;52.180;4.512;2023-12-04T05:11:23;100871.25;;;1.29;79.54
82033;BME280;71595;52.180;4.512;2023-12-04T05:13:49;100875.59;;;1.40;79.53
82033;BME280;71595;52.180;4.512;2023-12-04T05:16:14;100871.53;;;1.33;79.55
82033;BME280;71595;52.180;4.512;2023-12-04T05:18:39;100869.88;;;1.32;79.08
82033;BME280;71595;52.180;4.512;2023-12-04T05:21:11;100869.31;;;1.40;79.67
82033;BME280;71595;52.180;4.512;2023-12-04T05:23:40;100861.69;;;1.42;78.74
82033;BME280;71595;52.180;4.512;2023-12-04T05:26:06;100859.81;;;1.37;78.38
82033;BME280;71595;52.180;4.512;2023-12-04T05:28:32;100855.41;;;1.41;77.72
82033;BME280;71595;52.180;4.512;2023-12-04T05:30:59;100845.91;;;1.44;77.95
82033;BME280;71595;52.180;4.512;2023-12-04T05:33:24;100844.81;;;1.45;78.62
82033;BME280;71595;52.180;4.512;2023-12-04T05:35:49;100843.69;;;1.46;78.01
82033;BME280;71595;52.180;4.512;2023-12-04T05:38:18;100839.09;;;1.47;78.14
82033;BME280;71595;52.180;4.512;2023-12-04T05:40:43;100843.75;;;1.36;78.96
82033;BME280;71595;52.180;4.512;2023-12-04T05:43:09;100844.31;;;1.33;79.25
82033;BME280;71595;52.180;4.512;2023-12-04T05:45:34;100841.53;;;1.43;78.63
82033;BME280;71595;52.180;4.512;2023-12-04T05:48:00;100832.84;;;1.41;77.36
82033;BME280;71595;52.180;4.512;2023-12-04T05:50:25;100832.25;;;1.49;78.10
82033;BME280;71595;52.180;4.512;2023-12-04T05:52:51;100839.34;;;1.50;78.02
82033;BME280;71595;52.180;4.512;2023-12-04T05:55:16;100837.16;;;1.52;77.75
82033;BME280;71595;52.180;4.512;2023-12-04T05:57:43;100836.06;;;1.53;77.86
82033;BME280;71595;52.180;4.512;2023-12-04T06:00:09;100845.59;;;1.51;77.81
82033;BME280;71595;52.180;4.512;2023-12-04T06:02:38;100850.25;;;1.45;78.25
82033;BME280;71595;52.180;4.512;2023-12-04T06:05:04;100845.91;;;1.44;78.15
82033;BME280;71595;52.180;4.512;2023-12-04T06:07:29;100836.66;;;1.45;77.66
82033;BME280;71595;52.180;4.512;2023-12-04T06:09:55;100837.44;;;1.46;77.51
82033;BME280;71595;52.180;4.512;2023-12-04T06:12:20;100829.56;;;1.44;78.29
82033;BME280;71595;52.180;4.512;2023-12-04T06:14:45;100845.88;;;1.49;78.35
82033;BME280;71595;52.180;4.512;2023-12-04T06:17:11;100833.06;;;1.55;77.77
82033;BME280;71595;52.180;4.512;2023-12-04T06:19:36;100826.75;;;1.65;77.82
82033;BME280;71595;52.180;4.512;2023-12-04T06:22:01;100831.59;;;1.73;77.45
82033;BME280;71595;52.180;4.512;2023-12-04T06:24:27;100829.47;;;1.65;76.92
82033;BME280;71595;52.180;4.512;2023-12-04T06:26:52;100823.22;;;1.59;77.92
82033;BME280;71595;52.180;4.512;2023-12-04T06:29:18;100818.00;;;1.68;77.58
82033;BME280;71595;52.180;4.512;2023-12-04T06:31:44;100821.81;;;1.67;77.56
82033;BME280;71595;52.180;4.512;2023-12-04T06:34:10;100812.56;;;1.68;77.70
82033;BME280;71595;52.180;4.512;2023-12-04T06:36:38;100814.22;;;1.69;77.61
82033;BME280;71595;52.180;4.512;2023-12-04T06:39:09;100812.56;;;1.68;77.66
82033;BME280;71595;52.180;4.512;2023-12-04T06:41:35;100813.63;;;1.77;76.56
82033;BME280;71595;52.180;4.512;2023-12-04T06:44:00;100808.44;;;1.75;76.09
82033;BME280;71595;52.180;4.512;2023-12-04T06:46:28;100797.88;;;1.69;77.46
82033;BME280;71595;52.180;4.512;2023-12-04T06:48:57;100794.88;;;1.65;77.15
82033;BME280;71595;52.180;4.512;2023-12-04T06:51:24;100801.72;;;1.63;77.05
82033;BME280;71595;52.180;4.512;2023-12-04T06:53:49;100797.31;;;1.72;77.42
82033;BME280;71595;52.180;4.512;2023-12-04T06:56:15;100793.19;;;1.74;76.41
82033;BME280;71595;52.180;4.512;2023-12-04T06:58:40;100794.03;;;1.70;77.32
82033;BME280;71595;52.180;4.512;2023-12-04T07:01:06;100797.84;;;1.74;77.19
82033;BME280;71595;52.180;4.512;2023-12-04T07:03:31;100794.00;;;1.80;76.00
82033;BME280;71595;52.180;4.512;2023-12-04T07:05:56;100784.19;;;1.79;76.77
82033;BME280;71595;52.180;4.512;2023-12-04T07:08:22;100778.78;;;1.74;76.44
82033;BME280;71595;52.180;4.512;2023-12-04T07:10:47;100784.25;;;1.69;77.38
82033;BME280;71595;52.180;4.512;2023-12-04T07:13:13;100781.53;;;1.64;77.55
82033;BME280;71595;52.180;4.512;2023-12-04T07:15:39;100784.59;;;1.57;78.13
82033;BME280;71595;52.180;4.512;2023-12-04T07:18:04;100774.53;;;1.57;78.40
82033;BME280;71595;52.180;4.512;2023-12-04T07:20:29;100771.22;;;1.66;77.44
82033;BME280;71595;52.180;4.512;2023-12-04T07:22:55;100776.94;;;1.64;77.16
82033;BME280;71595;52.180;4.512;2023-12-04T07:25:23;100778.84;;;1.58;78.15
82033;BME280;71595;52.180;4.512;2023-12-04T07:27:48;100767.94;;;1.64;77.83
82033;BME280;71595;52.180;4.512;2023-12-04T07:30:13;100761.34;;;1.70;77.14
82033;BME280;71595;52.180;4.512;2023-12-04T07:32:39;100759.75;;;1.69;77.03
82033;BME280;71595;52.180;4.512;2023-12-04T07:35:05;100764.13;;;1.65;77.79
82033;BME280;71595;52.180;4.512;2023-12-04T07:37:31;100755.97;;;1.65;77.27
82033;BME280;71595;52.180;4.512;2023-12-04T07:39:57;100763.56;;;1.68;77.24
82033;BME280;71595;52.180;4.512;2023-12-04T07:42:22;100764.09;;;1.70;77.02
82033;BME280;71595;52.180;4.512;2023-12-04T07:44:48;100759.16;;;1.77;77.31
82033;BME280;71595;52.180;4.512;2023-12-04T07:47:14;100761.41;;;1.65;77.40
82033;BME280;71595;52.180;4.512;2023-12-04T07:49:41;100752.16;;;1.66;77.43
82033;BME280;71595;52.180;4.512;2023-12-04T07:52:06;100750.22;;;1.66;77.42
82033;BME280;71595;52.180;4.512;2023-12-04T07:54:32;100755.41;;;1.68;78.21
82033;BME280;71595;52.180;4.512;2023-12-04T07:56:57;100752.09;;;1.71;77.39
82033;BME280;71595;52.180;4.512;2023-12-04T07:59:23;100755.84;;;1.80;76.65
82033;BME280;71595;52.180;4.512;2023-12-04T08:01:48;100744.13;;;1.85;76.72
82033;BME280;71595;52.180;4.512;2023-12-04T08:04:14;100739.75;;;1.84;76.57
82033;BME280;71595;52.180;4.512;2023-12-04T08:06:39;100744.91;;;1.90;76.50
82033;BME280;71595;52.180;4.512;2023-12-04T08:09:05;100740.84;;;1.88;76.32
82033;BME280;71595;52.180;4.512;2023-12-04T08:11:38;100741.06;;;1.91;75.87
82033;BME280;71595;52.180;4.512;2023-12-04T08:14:03;100735.63;;;1.91;76.17
82033;BME280;71595;52.180;4.512;2023-12-04T08:16:29;100739.41;;;1.95;75.88
82033;BME280;71595;52.180;4.512;2023-12-04T08:18:55;100747.03;;;1.98;75.71
82033;BME280;71595;52.180;4.512;2023-12-04T08:21:20;100746.84;;;1.85;76.89
82033;BME280;71595;52.180;4.512;2023-12-04T08:23:46;100744.63;;;1.87;76.48
82033;BME280;71595;52.180;4.512;2023-12-04T08:26:11;100736.69;;;1.95;75.67
82033;BME280;71595;52.180;4.512;2023-12-04T08:28:37;100730.72;;;1.93;75.53
82033;BME280;71595;52.180;4.512;2023-12-04T08:31:09;100733.44;;;1.93;75.87
82033;BME280;71595;52.180;4.512;2023-12-04T08:33:35;100725.28;;;1.93;75.40
82033;BME280;71595;52.180;4.512;2023-12-04T08:36:00;100717.09;;;1.93;75.29
82033;BME280;71595;52.180;4.512;2023-12-04T08:38:26;100714.81;;;2.06;74.35
82033;BME280;71595;52.180;4.512;2023-12-04T08:40:51;100722.78;;;1.97;75.50
82033;BME280;71595;52.180;4.512;2023-12-04T08:43:17;100720.34;;;1.95;75.34
82033;BME280;71595;52.180;4.512;2023-12-04T08:45:44;100713.19;;;2.05;74.61
82033;BME280;71595;52.180;4.512;2023-12-04T08:48:09;100715.97;;;2.00;75.06
82033;BME280;71595;52.180;4.512;2023-12-04T08:50:35;100710.81;;;1.93;75.86
82033;BME280;71595;52.180;4.512;2023-12-04T08:53:02;100714.91;;;1.95;75.69
82033;BME280;71595;52.180;4.512;2023-12-04T08:55:27;100708.88;;;1.98;74.84
82033;BME280;71595;52.180;4.512;2023-12-04T08:57:53;100708.88;;;1.98;75.01
82033;BME280;71595;52.180;4.512;2023-12-04T09:00:19;100709.41;;;2.01;75.49
82033;BME280;71595;52.180;4.512;2023-12-04T09:02:44;100714.97;;;1.85;76.04
82033;BME280;71595;52.180;4.512;2023-12-04T09:05:10;100718.13;;;1.97;75.52
82033;BME280;71595;52.180;4.512;2023-12-04T09:07:36;100703.94;;;2.01;75.33
82033;BME280;71595;52.180;4.512;2023-12-04T09:10:02;100714.28;;;2.04;75.27
82033;BME280;71595;52.180;4.512;2023-12-04T09:12:27;100706.97;;;1.99;75.52
82033;BME280;71595;52.180;4.512;2023-12-04T09:14:53;100699.28;;;2.06;75.47
82033;BME280;71595;52.180;4.512;2023-12-04T09:17:18;100700.81;;;2.18;74.10
82033;BME280;71595;52.180;4.512;2023-12-04T09:19:45;100694.31;;;2.13;73.60
82033;BME280;71595;52.180;4.512;2023-12-04T09:22:11;100697.81;;;2.19;73.78
82033;BME280;71595;52.180;4.512;2023-12-04T09:24:36;100697.28;;;2.17;73.60
82033;BME280;71595;52.180;4.512;2023-12-04T09:27:01;100706.09;;;2.04;73.92
82033;BME280;71595;52.180;4.512;2023-12-04T09:29:27;100706.94;;;2.04;73.87
82033;BME280;71595;52.180;4.512;2023-12-04T09:31:53;100701.22;;;2.01;74.00
82033;BME280;71595;52.180;4.512;2023-12-04T09:34:19;100701.72;;;2.08;73.93
82033;BME280;71595;52.180;4.512;2023-12-04T09:36:46;100696.28;;;2.08;74.06
82033;BME280;71595;52.180;4.512;2023-12-04T09:39:12;100702.53;;;2.08;74.17
82033;BME280;71595;52.180;4.512;2023-12-04T09:41:38;100700.34;;;2.10;73.97
82033;BME280;71595;52.180;4.512;2023-12-04T09:44:05;100706.84;;;2.14;73.52
82033;BME280;71595;52.180;4.512;2023-12-04T09:46:31;100706.59;;;2.11;74.08
82033;BME280;71595;52.180;4.512;2023-12-04T09:48:58;100695.59;;;2.21;73.02
82033;BME280;71595;52.180;4.512;2023-12-04T09:51:24;100697.00;;;2.19;73.25
82033;BME280;71595;52.180;4.512;2023-12-04T09:53:51;100685.38;;;2.08;73.27
82033;BME280;71595;52.180;4.512;2023-12-04T09:56:17;100687.00;;;2.09;74.28
82033;BME280;71595;52.180;4.512;2023-12-04T09:58:44;100688.97;;;2.03;73.57
82033;BME280;71595;52.180;4.512;2023-12-04T10:01:11;100684.28;;;2.09;73.22
82033;BME280;71595;52.180;4.512;2023-12-04T10:03:36;100682.88;;;2.11;73.14
82033;BME280;71595;52.180;4.512;2023-12-04T10:06:04;100680.22;;;2.06;74.09
82033;BME280;71595;52.180;4.512;2023-12-04T10:08:30;100678.34;;;2.02;74.44
82033;BME280;71595;52.180;4.512;2023-12-04T10:10:55;100678.28;;;2.07;74.06
82033;BME280;71595;52.180;4.512;2023-12-04T10:13:21;100660.28;;;2.11;73.34
82033;BME280;71595;52.180;4.512;2023-12-04T10:15:47;100664.00;;;2.20;72.42
82033;BME280;71595;52.180;4.512;2023-12-04T10:18:41;100659.16;;;2.12;73.29
82033;BME280;71595;52.180;4.512;2023-12-04T10:21:06;100650.69;;;2.13;72.77
82033;BME280;71595;52.180;4.512;2023-12-04T10:23:51;100652.34;;;2.14;73.71
82033;BME280;71595;52.180;4.512;2023-12-04T10:26:16;100640.06;;;2.17;73.01
82033;BME280;71595;52.180;4.512;2023-12-04T10:28:59;100638.06;;;2.23;72.27
82033;BME280;71595;52.180;4.512;2023-12-04T10:31:25;100634.56;;;2.22;72.49
82033;BME280;71595;52.180;4.512;2023-12-04T10:33:50;100636.19;;;2.23;72.11
82033;BME280;71595;52.180;4.512;2023-12-04T10:36:16;100623.66;;;2.22;72.12
82033;BME280;71595;52.180;4.512;2023-12-04T10:38:43;100610.78;;;2.28;72.21
82033;BME280;71595;52.180;4.512;2023-12-04T10:41:14;100618.13;;;2.27;72.38
82033;BME280;71595;52.180;4.512;2023-12-04T10:43:47;100606.09;;;2.33;71.62
82033;BME280;71595;52.180;4.512;2023-12-04T10:46:14;100603.59;;;2.37;72.31
82033;BME280;71595;52.180;4.512;2023-12-04T10:48:42;100601.09;;;2.41;72.39
82033;BME280;71595;52.180;4.512;2023-12-04T10:51:12;100594.50;;;2.47;71.82
82033;BME280;71595;52.180;4.512;2023-12-04T10:53:38;100593.41;;;2.48;71.05
82033;BME280;71595;52.180;4.512;2023-12-04T10:56:07;100590.09;;;2.51;71.58
82033;BME280;71595;52.180;4.512;2023-12-04T10:58:34;100584.50;;;2.61;70.99
82033;BME280;71595;52.180;4.512;2023-12-04T11:01:01;100581.69;;;2.66;70.56
82033;BME280;71595;52.180;4.512;2023-12-04T11:03:36;100576.03;;;2.63;71.45
82033;BME280;71595;52.180;4.512;2023-12-04T11:06:06;100584.38;;;2.72;70.13
82033;BME280;71595;52.180;4.512;2023-12-04T11:08:36;100579.72;;;2.72;70.50
82033;BME280;71595;52.180;4.512;2023-12-04T11:11:03;100572.88;;;2.75;70.46
82033;BME280;71595;52.180;4.512;2023-12-04T11:13:35;100572.34;;;2.73;70.32
82033;BME280;71595;52.180;4.512;2023-12-04T11:16:07;100562.97;;;2.79;70.78
82033;BME280;71595;52.180;4.512;2023-12-04T11:18:36;100562.97;;;2.79;70.21
82033;BME280;71595;52.180;4.512;2023-12-04T11:21:13;100558.56;;;2.83;69.69
82033;BME280;71595;52.180;4.512;2023-12-04T11:23:39;100560.22;;;2.84;70.16
82033;BME280;71595;52.180;4.512;2023-12-04T11:26:05;100561.69;;;2.76;70.33
82033;BME280;71595;52.180;4.512;2023-12-04T11:28:33;100558.34;;;2.79;69.90
82033;BME280;71595;52.180;4.512;2023-12-04T11:30:59;100561.31;;;2.83;69.25
82033;BME280;71595;52.180;4.512;2023-12-04T11:33:26;100554.88;;;2.74;69.83
82033;BME280;71595;52.180;4.512;2023-12-04T11:35:51;100556.50;;;2.75;70.47
82033;BME280;71595;52.180;4.512;2023-12-04T11:38:17;100551.28;;;2.78;69.82
82033;BME280;71595;52.180;4.512;2023-12-04T11:40:43;100553.19;;;2.78;70.63
82033;BME280;71595;52.180;4.512;2023-12-04T11:43:25;100543.47;;;2.72;70.94
82033;BME280;71595;52.180;4.512;2023-12-04T11:45:52;100547.75;;;2.78;70.25
82033;BME280;71595;52.180;4.512;2023-12-04T11:48:23;100542.34;;;2.73;70.29
82033;BME280;71595;52.180;4.512;2023-12-04T11:50:51;100551.06;;;2.75;70.68
82033;BME280;71595;52.180;4.512;2023-12-04T11:53:16;100550.81;;;2.71;71.66
82033;BME280;71595;52.180;4.512;2023-12-04T11:55:42;100543.47;;;2.72;71.64
82033;BME280;71595;52.180;4.512;2023-12-04T11:58:11;100531.81;;;2.85;71.58
82033;BME280;71595;52.180;4.512;2023-12-04T12:00:37;100532.94;;;2.84;71.37
82033;BME280;71595;52.180;4.512;2023-12-04T12:03:05;100529.75;;;2.77;72.46
82033;BME280;71595;52.180;4.512;2023-12-04T12:05:33;100528.94;;;2.76;72.17
82033;BME280;71595;52.180;4.512;2023-12-04T12:08:05;100525.38;;;2.76;71.95
82033;BME280;71595;52.180;4.512;2023-12-04T12:10:32;100519.22;;;2.70;73.08
82033;BME280;71595;52.180;4.512;2023-12-04T12:12:58;100521.56;;;2.77;73.01
82033;BME280;71595;52.180;4.512;2023-12-04T12:15:24;100513.22;;;2.68;73.45
82033;BME280;71595;52.180;4.512;2023-12-04T12:17:50;100510.19;;;2.69;73.81
82033;BME280;71595;52.180;4.512;2023-12-04T12:20:16;100498.66;;;2.78;73.84
82033;BME280;71595;52.180;4.512;2023-12-04T12:22:42;100492.00;;;2.65;74.87
82033;BME280;71595;52.180;4.512;2023-12-04T12:25:11;100490.59;;;2.67;74.72
82033;BME280;71595;52.180;4.512;2023-12-04T12:27:37;100482.94;;;2.69;74.12
82033;BME280;71595;52.180;4.512;2023-12-04T12:30:03;100479.09;;;2.70;73.93
82033;BME280;71595;52.180;4.512;2023-12-04T12:32:33;100479.78;;;2.62;74.95
82033;BME280;71595;52.180;4.512;2023-12-04T12:34:59;100473.81;;;2.60;76.37
82033;BME280;71595;52.180;4.512;2023-12-04T12:37:24;100461.66;;;2.72;74.79
82033;BME280;71595;52.180;4.512;2023-12-04T12:39:51;100465.19;;;2.72;75.40
82033;BME280;71595;52.180;4.512;2023-12-04T12:42:27;100459.72;;;2.72;75.21
82033;BME280;71595;52.180;4.512;2023-12-04T12:44:53;100452.00;;;2.60;76.46
82033;BME280;71595;52.180;4.512;2023-12-04T12:47:19;100441.97;;;2.75;74.58
82033;BME280;71595;52.180;4.512;2023-12-04T12:49:45;100432.66;;;2.76;74.95
82033;BME280;71595;52.180;4.512;2023-12-04T12:52:11;100428.41;;;2.69;75.01
82033;BME280;71595;52.180;4.512;2023-12-04T12:54:37;100425.16;;;2.67;75.08